Mir — UFPV — position and weather

sailwx.info

Track history (hours):
 
Tides and Currents Weather Stations Pressure Air Temp Water Temp Dewpoint Dewpoint Depression Visibility Wind Speed Wind Dir Waves Ship Positions

Mir (Russia)

Last reported at 2019-Aug-24 19:28 UTC. Time now 2019-Aug-24 19:51 UTC.
Position N 53°58' E 014°12'.

Length 109 m; draft 6.5 m.

Type: Sailing vessel. MMSI: 273133767.

Date/timePositionNaut miles runAvg speedWind from/ knotsBaromVisibWave heightAir tempDewpointWater temp
2019-Aug-24 19:28N 53°58' E 014°12'0 0.0
2019-Aug-24 19:01N 53°58' E 014°12'0 0.0
2019-Aug-24 13:30N 53°59' E 014°12'6 5.4
2019-Aug-24 12:21N 54°04' E 014°07'16 0.6
2019-Aug-23 10:15N 54°19' E 013°58'1 5.8
2019-Aug-23 10:00N 54°20' E 013°55'4 6.1
2019-Aug-23 09:16N 54°22' E 013°49'2 6.2
2019-Aug-23 09:01N 54°23' E 013°47'3 6.0
2019-Aug-23 08:30N 54°25' E 013°42'2 2.9
2019-Aug-23 07:56N 54°26' E 013°40'0 0.0
2019-Aug-23 07:29N 54°26' E 013°40'0 0.0
2019-Aug-23 06:59N 54°26' E 013°40'0 0.0
2019-Aug-23 06:17N 54°26' E 013°40'0 0.0
2019-Aug-23 05:05N 54°26' E 013°40'0 0.0
2019-Aug-23 04:50N 54°26' E 013°40'0 0.0
2019-Aug-22 23:14N 54°26' E 013°40'0 0.0
2019-Aug-22 22:53N 54°26' E 013°40'0 0.0
2019-Aug-22 22:29N 54°26' E 013°40'0 0.0
2019-Aug-22 21:59N 54°26' E 013°40'0 0.0
2019-Aug-22 21:29N 54°26' E 013°40'0 0.0
2019-Aug-22 20:59N 54°26' E 013°39'0 0.0
2019-Aug-22 20:29N 54°26' E 013°39'0 0.0
2019-Aug-22 19:59N 54°26' E 013°39'0 0.0
2019-Aug-22 19:29N 54°26' E 013°39'0 0.0
2019-Aug-22 18:56N 54°26' E 013°39'0 0.0
2019-Aug-22 18:29N 54°26' E 013°39'0 0.0
2019-Aug-22 17:59N 54°26' E 013°39'  
2019-Aug-20 08:08N 54°45' E 013°19'1 4.9
2019-Aug-20 07:55N 54°46' E 013°17'20 4.8
2019-Aug-20 03:44N 54°44' E 012°43'1 4.1
2019-Aug-20 03:30N 54°44' E 012°41'2 4.0
2019-Aug-20 03:00N 54°43' E 012°39'3 4.0
2019-Aug-20 02:09N 54°40' E 012°34'1 4.3
2019-Aug-20 02:00N 54°40' E 012°33'2 4.2
2019-Aug-20 01:29N 54°39' E 012°30'5 4.0
2019-Aug-20 00:14N 54°36' E 012°23'1 3.9
2019-Aug-19 23:58N 54°36' E 012°21'2 3.7
2019-Aug-19 23:30N 54°34' E 012°19'2 4.3
2019-Aug-19 23:00N 54°32' E 012°18'2 4.0
2019-Aug-19 22:30N 54°30' E 012°17'2 3.6
2019-Aug-19 22:00N 54°29' E 012°16'2 3.8
2019-Aug-19 21:25N 54°27' E 012°14'2 4.4
2019-Aug-19 20:59N 54°25' E 012°11'1 1.8
2019-Aug-19 20:30N 54°25' E 012°10'1 1.6
2019-Aug-19 19:58N 54°24' E 012°09'4 3.2
2019-Aug-19 18:47N 54°24' E 012°02'1 2.4
2019-Aug-19 18:29N 54°24' E 012°01'1 2.8
2019-Aug-19 18:00N 54°23' E 011°59'3 4.0
2019-Aug-19 17:17N 54°22' E 011°54'1 3.8
2019-Aug-19 17:00N 54°22' E 011°53'2 3.8
2019-Aug-19 16:30N 54°21' E 011°50'2 3.4
2019-Aug-19 16:00N 54°20' E 011°47'2 3.5
2019-Aug-19 15:29N 54°19' E 011°45'2 4.5
2019-Aug-19 15:00N 54°18' E 011°42'7 4.6
2019-Aug-19 13:33N 54°14' E 011°32'1 5.4
2019-Aug-19 13:26N 54°14' E 011°31'2 4.9
2019-Aug-19 12:58N 54°12' E 011°28'2 4.3
2019-Aug-19 12:24N 54°10' E 011°26'2 4.1
2019-Aug-19 11:59N 54°09' E 011°25'2 4.3
2019-Aug-19 11:30N 54°07' E 011°26'2 4.6
2019-Aug-19 11:00N 54°04' E 011°27'4 7.4
2019-Aug-19 10:28N 54°01' E 011°23'3 6.4
2019-Aug-19 10:00N 53°59' E 011°20'4 7.4
2019-Aug-19 09:30N 53°57' E 011°25'3 6.2
2019-Aug-19 09:00N 53°54' E 011°27'0 0.0
2019-Aug-19 08:29N 53°54' E 011°27'0 0.0
2019-Aug-19 07:59N 53°54' E 011°27'0 0.0
2019-Aug-19 07:29N 53°54' E 011°27'0 0.0
2019-Aug-19 06:59N 53°54' E 011°27'0 0.0
2019-Aug-19 06:29N 53°54' E 011°27'0 0.0
2019-Aug-19 05:59N 53°54' E 011°27'0 0.0
2019-Aug-19 05:29N 53°54' E 011°27'0 0.0
2019-Aug-19 04:59N 53°54' E 011°27'0 0.0
2019-Aug-19 04:29N 53°54' E 011°27'0 0.0
2019-Aug-19 03:59N 53°54' E 011°27'0 0.0
2019-Aug-19 03:29N 53°54' E 011°27'0 0.0
2019-Aug-19 02:59N 53°54' E 011°27'0 0.0
2019-Aug-19 02:29N 53°54' E 011°27'0 0.0
2019-Aug-19 01:59N 53°54' E 011°27'0 0.0
2019-Aug-19 01:29N 53°54' E 011°27'0 0.0
2019-Aug-19 00:59N 53°54' E 011°27'0 0.0
2019-Aug-19 00:29N 53°54' E 011°27'0 0.0
2019-Aug-18 23:59N 53°54' E 011°27'0 0.0
2019-Aug-18 23:29N 53°54' E 011°27'0 0.0
2019-Aug-18 22:59N 53°54' E 011°27'0 0.0
2019-Aug-18 22:29N 53°54' E 011°27'0 0.0
2019-Aug-18 21:56N 53°54' E 011°27'0 0.0
2019-Aug-18 21:29N 53°54' E 011°27'0 0.0
2019-Aug-18 20:59N 53°54' E 011°27'0 0.0
2019-Aug-18 20:29N 53°54' E 011°27'0 0.0
2019-Aug-18 19:59N 53°54' E 011°27'0 0.0
2019-Aug-18 19:29N 53°54' E 011°27'0 0.0
2019-Aug-18 18:56N 53°54' E 011°27'0 0.0
2019-Aug-18 18:26N 53°54' E 011°27'0 0.0
2019-Aug-18 17:59N 53°54' E 011°27'0 0.0
2019-Aug-18 17:29N 53°54' E 011°27'0 0.0
2019-Aug-18 16:59N 53°54' E 011°27'0 0.0
2019-Aug-18 16:29N 53°54' E 011°27'0 0.0
2019-Aug-18 15:59N 53°54' E 011°27'0 0.0
2019-Aug-18 15:29N 53°54' E 011°27'0 0.0
2019-Aug-18 14:59N 53°54' E 011°27'0 0.0
2019-Aug-18 14:29N 53°54' E 011°27'0 0.0
2019-Aug-18 13:59N 53°54' E 011°27'0 0.0
2019-Aug-18 13:29N 53°54' E 011°27'0 0.0
2019-Aug-18 12:56N 53°54' E 011°27'0 0.0
2019-Aug-18 12:29N 53°54' E 011°27'0 0.0
2019-Aug-18 11:59N 53°54' E 011°27'0 0.0
2019-Aug-18 11:29N 53°54' E 011°27'0 0.0
2019-Aug-18 10:59N 53°54' E 011°27'0 0.0
2019-Aug-18 10:29N 53°54' E 011°27'0 0.0
2019-Aug-18 09:59N 53°54' E 011°27'0 0.0
2019-Aug-18 09:29N 53°54' E 011°27'0 0.0
2019-Aug-18 08:59N 53°54' E 011°27'0 0.0
2019-Aug-18 08:29N 53°54' E 011°27'0 0.0
2019-Aug-18 07:59N 53°54' E 011°27'0 0.0
2019-Aug-18 06:59N 53°54' E 011°27'0 0.0
2019-Aug-18 06:29N 53°54' E 011°27'0 0.0
2019-Aug-18 05:56N 53°54' E 011°27'0 0.0
2019-Aug-18 05:26N 53°54' E 011°27'0 0.0
2019-Aug-18 04:59N 53°54' E 011°27'0 0.0
2019-Aug-18 04:29N 53°54' E 011°27'0 0.0
2019-Aug-18 03:59N 53°54' E 011°27'0 0.0
2019-Aug-18 03:29N 53°54' E 011°27'0 0.0
2019-Aug-18 02:59N 53°54' E 011°27'0 0.0
2019-Aug-18 02:29N 53°54' E 011°27'0 0.0
2019-Aug-18 01:59N 53°54' E 011°27'0 0.0
2019-Aug-18 01:29N 53°54' E 011°27'0 0.0
2019-Aug-18 00:59N 53°54' E 011°27'0 0.0
2019-Aug-18 00:29N 53°54' E 011°27'0 0.0
2019-Aug-17 23:59N 53°54' E 011°27'0 0.0
2019-Aug-17 23:29N 53°54' E 011°27'0 0.0
2019-Aug-17 22:59N 53°54' E 011°27'0 0.0
2019-Aug-17 22:28N 53°54' E 011°27'0 0.0
2019-Aug-17 21:58N 53°54' E 011°27'0 0.0
2019-Aug-17 21:28N 53°54' E 011°27'0 0.0
2019-Aug-17 20:58N 53°54' E 011°27'0 0.0
2019-Aug-17 20:28N 53°54' E 011°27'0 0.0
2019-Aug-17 19:58N 53°54' E 011°27'0 0.0
2019-Aug-17 19:28N 53°54' E 011°27'0 0.0
2019-Aug-17 18:58N 53°54' E 011°27'0 0.0
2019-Aug-17 18:28N 53°54' E 011°27'0 0.0
2019-Aug-17 17:28N 53°54' E 011°27'0 0.0
2019-Aug-17 16:58N 53°54' E 011°27'0 0.0
2019-Aug-17 16:28N 53°54' E 011°27'0 0.0
2019-Aug-17 15:55N 53°54' E 011°27'0 0.5
2019-Aug-17 15:31N 53°54' E 011°27'1 2.1
2019-Aug-17 15:00N 53°55' E 011°26'4 7.4
2019-Aug-17 14:30N 53°58' E 011°22'3 6.7
2019-Aug-17 14:00N 54°01' E 011°20'3 6.9
2019-Aug-17 13:30N 54°03' E 011°25'3 6.1
2019-Aug-17 13:00N 54°06' E 011°26'3 5.3
2019-Aug-17 12:30N 54°08' E 011°25'2 4.6
2019-Aug-17 12:00N 54°06' E 011°26'3 4.9
2019-Aug-17 11:30N 54°03' E 011°27'3 6.6
2019-Aug-17 11:00N 54°01' E 011°23'2 4.8
2019-Aug-17 10:30N 53°59' E 011°20'3 5.7
2019-Aug-17 10:00N 53°57' E 011°23'3 6.1
2019-Aug-17 09:30N 53°55' E 011°26'1 1.9
2019-Aug-17 08:55N 53°54' E 011°27'0 0.0
2019-Aug-17 08:28N 53°54' E 011°27'0 0.0
2019-Aug-17 07:58N 53°54' E 011°27'0 0.0
2019-Aug-17 07:28N 53°54' E 011°27'0 0.0
2019-Aug-17 06:58N 53°54' E 011°27'0 0.0
2019-Aug-17 06:28N 53°54' E 011°27'0 0.0
2019-Aug-17 05:58N 53°54' E 011°27'0 0.0
2019-Aug-17 05:28N 53°54' E 011°27'0 0.0
2019-Aug-17 04:58N 53°54' E 011°27'0 0.0
2019-Aug-17 04:28N 53°54' E 011°27'0 0.0
2019-Aug-17 03:58N 53°54' E 011°27'0 0.0
2019-Aug-17 03:28N 53°54' E 011°27'0 0.0
2019-Aug-17 02:58N 53°54' E 011°27'0 0.0
2019-Aug-17 02:28N 53°54' E 011°27'0 0.0
2019-Aug-17 01:58N 53°54' E 011°27'0 0.0
2019-Aug-17 01:28N 53°54' E 011°27'0 0.0
2019-Aug-17 00:58N 53°54' E 011°27'0 0.0
2019-Aug-17 00:28N 53°54' E 011°27'0 0.0
2019-Aug-16 23:58N 53°54' E 011°27'0 0.0
2019-Aug-16 23:28N 53°54' E 011°27'0 0.0
2019-Aug-16 22:58N 53°54' E 011°27'0 0.0
2019-Aug-16 22:28N 53°54' E 011°27'0 0.0
2019-Aug-16 21:58N 53°54' E 011°27'0 0.0
2019-Aug-16 21:28N 53°54' E 011°27'0 0.0
2019-Aug-16 20:58N 53°54' E 011°27'0 0.0
2019-Aug-16 20:28N 53°54' E 011°27'0 0.0
2019-Aug-16 19:58N 53°54' E 011°27'0 0.0
2019-Aug-16 19:28N 53°54' E 011°27'0 0.0
2019-Aug-16 18:58N 53°54' E 011°27'0 0.0
2019-Aug-16 18:25N 53°54' E 011°27'0 0.0
2019-Aug-16 17:58N 53°54' E 011°27'0 0.0
2019-Aug-16 17:28N 53°54' E 011°27'0 0.0
2019-Aug-16 16:58N 53°54' E 011°27'0 0.0
2019-Aug-16 16:28N 53°54' E 011°27'0 0.0
2019-Aug-16 15:58N 53°54' E 011°27'0 0.0
2019-Aug-16 15:28N 53°54' E 011°27'0 0.0
2019-Aug-16 14:58N 53°54' E 011°27'0 0.0
2019-Aug-16 14:28N 53°54' E 011°27'0 0.0
2019-Aug-16 13:58N 53°54' E 011°27'0 0.0
2019-Aug-16 13:28N 53°54' E 011°27'0 0.0
2019-Aug-16 12:46N 53°54' E 011°27'0 0.0
2019-Aug-16 11:55N 53°54' E 011°27'0 0.0
2019-Aug-16 11:28N 53°54' E 011°27'0 0.0
2019-Aug-16 10:52N 53°54' E 011°27'0 0.0
2019-Aug-16 10:25N 53°54' E 011°27'0 0.0
2019-Aug-16 09:55N 53°54' E 011°27'0 0.0
2019-Aug-16 09:28N 53°54' E 011°27'0 0.0
2019-Aug-16 08:58N 53°54' E 011°27'0 0.0
2019-Aug-16 08:25N 53°54' E 011°27'0 0.0
2019-Aug-16 07:58N 53°54' E 011°27'0 0.0
2019-Aug-16 07:28N 53°54' E 011°27'0 0.0
2019-Aug-16 06:55N 53°54' E 011°27'0 0.0
2019-Aug-16 06:28N 53°54' E 011°27'0 0.0
2019-Aug-16 05:55N 53°54' E 011°27'0 0.0
2019-Aug-16 05:28N 53°54' E 011°27'0 0.0
2019-Aug-16 04:49N 53°54' E 011°27'0 0.0
2019-Aug-16 04:28N 53°54' E 011°27'0 0.0
2019-Aug-16 03:49N 53°54' E 011°27'0 0.0
2019-Aug-16 03:28N 53°54' E 011°27'0 0.0
2019-Aug-16 02:58N 53°54' E 011°27'0 0.0
2019-Aug-16 02:28N 53°54' E 011°27'0 0.0
2019-Aug-16 01:58N 53°54' E 011°27'0 0.0
2019-Aug-16 01:28N 53°54' E 011°27'0 0.0
2019-Aug-16 00:55N 53°54' E 011°27'0 0.0
2019-Aug-16 00:28N 53°54' E 011°27'0 0.0
2019-Aug-15 23:52N 53°54' E 011°27'0 0.0
2019-Aug-15 23:22N 53°54' E 011°27'0 0.0
2019-Aug-15 22:46N 53°54' E 011°27'0 0.0
2019-Aug-15 21:31N 53°54' E 011°27'0 0.0
2019-Aug-15 21:16N 53°54' E 011°27'0 0.0
2019-Aug-15 20:37N 53°54' E 011°27'0 0.0
2019-Aug-15 20:28N 53°54' E 011°27'0 0.0
2019-Aug-15 19:52N 53°54' E 011°27'0 0.0
2019-Aug-15 19:19N 53°54' E 011°27'0 0.0
2019-Aug-15 18:43N 53°54' E 011°27'0 0.0
2019-Aug-15 18:28N 53°54' E 011°27'0 0.0
2019-Aug-15 17:13N 53°54' E 011°27'0 0.0
2019-Aug-15 16:46N 53°54' E 011°27'0 0.0
2019-Aug-15 16:28N 53°54' E 011°27'0 0.0
2019-Aug-15 15:46N 53°54' E 011°27'0 0.0
2019-Aug-15 15:28N 53°54' E 011°27'0 0.0
2019-Aug-15 14:58N 53°54' E 011°27'0 0.0
2019-Aug-15 14:22N 53°54' E 011°27'0 0.0
2019-Aug-15 13:58N 53°54' E 011°27'0 0.0
2019-Aug-15 13:22N 53°54' E 011°27'0 0.0
2019-Aug-15 12:58N 53°54' E 011°27'0 0.0
2019-Aug-15 12:28N 53°54' E 011°27'0 0.0
2019-Aug-15 11:58N 53°54' E 011°27'0 0.0
2019-Aug-15 11:28N 53°54' E 011°27'0 0.0
2019-Aug-15 10:58N 53°54' E 011°27'0 0.0
2019-Aug-15 10:28N 53°54' E 011°27'0 0.0
2019-Aug-15 10:01N 53°54' E 011°27'0 0.5
2019-Aug-15 09:30N 53°54' E 011°27'1 1.8
2019-Aug-15 09:01N 53°55' E 011°26'3 6.8
2019-Aug-15 08:30N 53°58' E 011°23'3 6.2
2019-Aug-15 08:01N 54°00' E 011°20'3 6.6
2019-Aug-15 07:31N 54°02' E 011°24'3 5.5
2019-Aug-15 07:00N 54°05' E 011°26'1 1.2
2019-Aug-15 06:30N 54°05' E 011°25'0 0.4
2019-Aug-15 05:59N 54°05' E 011°25'0 0.7
2019-Aug-15 05:28N 54°05' E 011°25'0 0.0
2019-Aug-15 04:58N 54°05' E 011°25'0 0.1
2019-Aug-15 04:28N 54°05' E 011°25'0 0.0
2019-Aug-15 03:52N 54°05' E 011°25'0 0.0
2019-Aug-15 03:22N 54°05' E 011°25'0 0.0
2019-Aug-15 02:52N 54°05' E 011°25'0 0.0
2019-Aug-15 02:13N 54°05' E 011°25'0 0.0
2019-Aug-15 01:55N 54°05' E 011°25'0 0.0
2019-Aug-15 01:28N 54°05' E 011°25'0 0.0
2019-Aug-15 00:55N 54°05' E 011°25'0 0.0
2019-Aug-15 00:07N 54°05' E 011°25'0 0.0
2019-Aug-14 23:46N 54°05' E 011°25'0 0.0
2019-Aug-14 23:28N 54°05' E 011°25'0 0.0
2019-Aug-14 22:52N 54°05' E 011°25'0 0.0
2019-Aug-14 22:25N 54°05' E 011°25'0 0.0
2019-Aug-14 21:58N 54°05' E 011°25'0 0.2
2019-Aug-14 21:28N 54°05' E 011°25'0 0.0
2019-Aug-14 20:13N 54°05' E 011°25'0 0.0
2019-Aug-14 19:52N 54°05' E 011°25'0 0.0
2019-Aug-14 19:28N 54°05' E 011°25'  
Track history (hours):
 
Tides and Currents Weather Stations Pressure Air Temp Water Temp Dewpoint Dewpoint Depression Visibility Wind Speed Wind Dir Waves Ship Positions

Mir (Russia)

Last reported at 2019-Aug-24 19:28 UTC. Time now 2019-Aug-24 19:51 UTC.
Position N 53°58' E 014°12'.

Length 109 m; draft 6.5 m.

Type: Sailing vessel. MMSI: 273133767.

Date/timePositionNaut miles runAvg speedWind from/ knotsBaromVisibWave heightAir tempDewpointWater temp
2019-Aug-24 19:28N 53°58' E 014°12'0 0.0
2019-Aug-24 19:01N 53°58' E 014°12'0 0.0
2019-Aug-24 13:30N 53°59' E 014°12'6 5.4
2019-Aug-24 12:21N 54°04' E 014°07'16 0.6
2019-Aug-23 10:15N 54°19' E 013°58'1 5.8
2019-Aug-23 10:00N 54°20' E 013°55'4 6.1
2019-Aug-23 09:16N 54°22' E 013°49'2 6.2
2019-Aug-23 09:01N 54°23' E 013°47'3 6.0
2019-Aug-23 08:30N 54°25' E 013°42'2 2.9
2019-Aug-23 07:56N 54°26' E 013°40'0 0.0
2019-Aug-23 07:29N 54°26' E 013°40'0 0.0
2019-Aug-23 06:59N 54°26' E 013°40'0 0.0
2019-Aug-23 06:17N 54°26' E 013°40'0 0.0
2019-Aug-23 05:05N 54°26' E 013°40'0 0.0
2019-Aug-23 04:50N 54°26' E 013°40'0 0.0
2019-Aug-22 23:14N 54°26' E 013°40'0 0.0
2019-Aug-22 22:53N 54°26' E 013°40'0 0.0
2019-Aug-22 22:29N 54°26' E 013°40'0 0.0
2019-Aug-22 21:59N 54°26' E 013°40'0 0.0
2019-Aug-22 21:29N 54°26' E 013°40'0 0.0
2019-Aug-22 20:59N 54°26' E 013°39'0 0.0
2019-Aug-22 20:29N 54°26' E 013°39'0 0.0
2019-Aug-22 19:59N 54°26' E 013°39'0 0.0
2019-Aug-22 19:29N 54°26' E 013°39'0 0.0
2019-Aug-22 18:56N 54°26' E 013°39'0 0.0
2019-Aug-22 18:29N 54°26' E 013°39'0 0.0
2019-Aug-22 17:59N 54°26' E 013°39'  
2019-Aug-20 08:08N 54°45' E 013°19'1 4.9
2019-Aug-20 07:55N 54°46' E 013°17'20 4.8
2019-Aug-20 03:44N 54°44' E 012°43'1 4.1
2019-Aug-20 03:30N 54°44' E 012°41'2 4.0
2019-Aug-20 03:00N 54°43' E 012°39'3 4.0
2019-Aug-20 02:09N 54°40' E 012°34'1 4.3
2019-Aug-20 02:00N 54°40' E 012°33'2 4.2
2019-Aug-20 01:29N 54°39' E 012°30'5 4.0
2019-Aug-20 00:14N 54°36' E 012°23'1 3.9
2019-Aug-19 23:58N 54°36' E 012°21'2 3.7
2019-Aug-19 23:30N 54°34' E 012°19'2 4.3
2019-Aug-19 23:00N 54°32' E 012°18'2 4.0
2019-Aug-19 22:30N 54°30' E 012°17'2 3.6
2019-Aug-19 22:00N 54°29' E 012°16'2 3.8
2019-Aug-19 21:25N 54°27' E 012°14'2 4.4
2019-Aug-19 20:59N 54°25' E 012°11'1 1.8
2019-Aug-19 20:30N 54°25' E 012°10'1 1.6
2019-Aug-19 19:58N 54°24' E 012°09'4 3.2
2019-Aug-19 18:47N 54°24' E 012°02'1 2.4
2019-Aug-19 18:29N 54°24' E 012°01'1 2.8
2019-Aug-19 18:00N 54°23' E 011°59'3 4.0
2019-Aug-19 17:17N 54°22' E 011°54'1 3.8
2019-Aug-19 17:00N 54°22' E 011°53'2 3.8
2019-Aug-19 16:30N 54°21' E 011°50'2 3.4
2019-Aug-19 16:00N 54°20' E 011°47'2 3.5
2019-Aug-19 15:29N 54°19' E 011°45'2 4.5
2019-Aug-19 15:00N 54°18' E 011°42'7 4.6
2019-Aug-19 13:33N 54°14' E 011°32'1 5.4
2019-Aug-19 13:26N 54°14' E 011°31'2 4.9
2019-Aug-19 12:58N 54°12' E 011°28'2 4.3
2019-Aug-19 12:24N 54°10' E 011°26'2 4.1
2019-Aug-19 11:59N 54°09' E 011°25'2 4.3
2019-Aug-19 11:30N 54°07' E 011°26'2 4.6
2019-Aug-19 11:00N 54°04' E 011°27'4 7.4
2019-Aug-19 10:28N 54°01' E 011°23'3 6.4
2019-Aug-19 10:00N 53°59' E 011°20'4 7.4
2019-Aug-19 09:30N 53°57' E 011°25'3 6.2
2019-Aug-19 09:00N 53°54' E 011°27'0 0.0
2019-Aug-19 08:29N 53°54' E 011°27'0 0.0
2019-Aug-19 07:59N 53°54' E 011°27'0 0.0
2019-Aug-19 07:29N 53°54' E 011°27'0 0.0
2019-Aug-19 06:59N 53°54' E 011°27'0 0.0
2019-Aug-19 06:29N 53°54' E 011°27'0 0.0
2019-Aug-19 05:59N 53°54' E 011°27'0 0.0
2019-Aug-19 05:29N 53°54' E 011°27'0 0.0
2019-Aug-19 04:59N 53°54' E 011°27'0 0.0
2019-Aug-19 04:29N 53°54' E 011°27'0 0.0
2019-Aug-19 03:59N 53°54' E 011°27'0 0.0
2019-Aug-19 03:29N 53°54' E 011°27'0 0.0
2019-Aug-19 02:59N 53°54' E 011°27'0 0.0
2019-Aug-19 02:29N 53°54' E 011°27'0 0.0
2019-Aug-19 01:59N 53°54' E 011°27'0 0.0
2019-Aug-19 01:29N 53°54' E 011°27'0 0.0
2019-Aug-19 00:59N 53°54' E 011°27'0 0.0
2019-Aug-19 00:29N 53°54' E 011°27'0 0.0
2019-Aug-18 23:59N 53°54' E 011°27'0 0.0
2019-Aug-18 23:29N 53°54' E 011°27'0 0.0
2019-Aug-18 22:59N 53°54' E 011°27'0 0.0
2019-Aug-18 22:29N 53°54' E 011°27'0 0.0
2019-Aug-18 21:56N 53°54' E 011°27'0 0.0
2019-Aug-18 21:29N 53°54' E 011°27'0 0.0
2019-Aug-18 20:59N 53°54' E 011°27'0 0.0
2019-Aug-18 20:29N 53°54' E 011°27'0 0.0
2019-Aug-18 19:59N 53°54' E 011°27'0 0.0
2019-Aug-18 19:29N 53°54' E 011°27'0 0.0
2019-Aug-18 18:56N 53°54' E 011°27'0 0.0
2019-Aug-18 18:26N 53°54' E 011°27'0 0.0
2019-Aug-18 17:59N 53°54' E 011°27'0 0.0
2019-Aug-18 17:29N 53°54' E 011°27'0 0.0
2019-Aug-18 16:59N 53°54' E 011°27'0 0.0
2019-Aug-18 16:29N 53°54' E 011°27'0 0.0
2019-Aug-18 15:59N 53°54' E 011°27'0 0.0
2019-Aug-18 15:29N 53°54' E 011°27'0 0.0
2019-Aug-18 14:59N 53°54' E 011°27'0 0.0
2019-Aug-18 14:29N 53°54' E 011°27'0 0.0
2019-Aug-18 13:59N 53°54' E 011°27'0 0.0
2019-Aug-18 13:29N 53°54' E 011°27'0 0.0
2019-Aug-18 12:56N 53°54' E 011°27'0 0.0
2019-Aug-18 12:29N 53°54' E 011°27'0 0.0
2019-Aug-18 11:59N 53°54' E 011°27'0 0.0
2019-Aug-18 11:29N 53°54' E 011°27'0 0.0
2019-Aug-18 10:59N 53°54' E 011°27'0 0.0
2019-Aug-18 10:29N 53°54' E 011°27'0 0.0
2019-Aug-18 09:59N 53°54' E 011°27'0 0.0
2019-Aug-18 09:29N 53°54' E 011°27'0 0.0
2019-Aug-18 08:59N 53°54' E 011°27'0 0.0
2019-Aug-18 08:29N 53°54' E 011°27'0 0.0
2019-Aug-18 07:59N 53°54' E 011°27'0 0.0
2019-Aug-18 06:59N 53°54' E 011°27'0 0.0
2019-Aug-18 06:29N 53°54' E 011°27'0 0.0
2019-Aug-18 05:56N 53°54' E 011°27'0 0.0
2019-Aug-18 05:26N 53°54' E 011°27'0 0.0
2019-Aug-18 04:59N 53°54' E 011°27'0 0.0
2019-Aug-18 04:29N 53°54' E 011°27'0 0.0
2019-Aug-18 03:59N 53°54' E 011°27'0 0.0
2019-Aug-18 03:29N 53°54' E 011°27'0 0.0
2019-Aug-18 02:59N 53°54' E 011°27'0 0.0
2019-Aug-18 02:29N 53°54' E 011°27'0 0.0
2019-Aug-18 01:59N 53°54' E 011°27'0 0.0
2019-Aug-18 01:29N 53°54' E 011°27'0 0.0
2019-Aug-18 00:59N 53°54' E 011°27'0 0.0
2019-Aug-18 00:29N 53°54' E 011°27'0 0.0
2019-Aug-17 23:59N 53°54' E 011°27'0 0.0
2019-Aug-17 23:29N 53°54' E 011°27'0 0.0
2019-Aug-17 22:59N 53°54' E 011°27'0 0.0
2019-Aug-17 22:28N 53°54' E 011°27'0 0.0
2019-Aug-17 21:58N 53°54' E 011°27'0 0.0
2019-Aug-17 21:28N 53°54' E 011°27'0 0.0
2019-Aug-17 20:58N 53°54' E 011°27'0 0.0
2019-Aug-17 20:28N 53°54' E 011°27'0 0.0
2019-Aug-17 19:58N 53°54' E 011°27'0 0.0
2019-Aug-17 19:28N 53°54' E 011°27'0 0.0
2019-Aug-17 18:58N 53°54' E 011°27'0 0.0
2019-Aug-17 18:28N 53°54' E 011°27'0 0.0
2019-Aug-17 17:28N 53°54' E 011°27'0 0.0
2019-Aug-17 16:58N 53°54' E 011°27'0 0.0
2019-Aug-17 16:28N 53°54' E 011°27'0 0.0
2019-Aug-17 15:55N 53°54' E 011°27'0 0.5
2019-Aug-17 15:31N 53°54' E 011°27'1 2.1
2019-Aug-17 15:00N 53°55' E 011°26'4 7.4
2019-Aug-17 14:30N 53°58' E 011°22'3 6.7
2019-Aug-17 14:00N 54°01' E 011°20'3 6.9
2019-Aug-17 13:30N 54°03' E 011°25'3 6.1
2019-Aug-17 13:00N 54°06' E 011°26'3 5.3
2019-Aug-17 12:30N 54°08' E 011°25'2 4.6
2019-Aug-17 12:00N 54°06' E 011°26'3 4.9
2019-Aug-17 11:30N 54°03' E 011°27'3 6.6
2019-Aug-17 11:00N 54°01' E 011°23'2 4.8
2019-Aug-17 10:30N 53°59' E 011°20'3 5.7
2019-Aug-17 10:00N 53°57' E 011°23'3 6.1
2019-Aug-17 09:30N 53°55' E 011°26'1 1.9
2019-Aug-17 08:55N 53°54' E 011°27'0 0.0
2019-Aug-17 08:28N 53°54' E 011°27'0 0.0
2019-Aug-17 07:58N 53°54' E 011°27'0 0.0
2019-Aug-17 07:28N 53°54' E 011°27'0 0.0
2019-Aug-17 06:58N 53°54' E 011°27'0 0.0
2019-Aug-17 06:28N 53°54' E 011°27'0 0.0
2019-Aug-17 05:58N 53°54' E 011°27'0 0.0
2019-Aug-17 05:28N 53°54' E 011°27'0 0.0
2019-Aug-17 04:58N 53°54' E 011°27'0 0.0
2019-Aug-17 04:28N 53°54' E 011°27'0 0.0
2019-Aug-17 03:58N 53°54' E 011°27'0 0.0
2019-Aug-17 03:28N 53°54' E 011°27'0 0.0
2019-Aug-17 02:58N 53°54' E 011°27'0 0.0
2019-Aug-17 02:28N 53°54' E 011°27'0 0.0
2019-Aug-17 01:58N 53°54' E 011°27'0 0.0
2019-Aug-17 01:28N 53°54' E 011°27'0 0.0
2019-Aug-17 00:58N 53°54' E 011°27'0 0.0
2019-Aug-17 00:28N 53°54' E 011°27'0 0.0
2019-Aug-16 23:58N 53°54' E 011°27'0 0.0
2019-Aug-16 23:28N 53°54' E 011°27'0 0.0
2019-Aug-16 22:58N 53°54' E 011°27'0 0.0
2019-Aug-16 22:28N 53°54' E 011°27'0 0.0
2019-Aug-16 21:58N 53°54' E 011°27'0 0.0
2019-Aug-16 21:28N 53°54' E 011°27'0 0.0
2019-Aug-16 20:58N 53°54' E 011°27'0 0.0
2019-Aug-16 20:28N 53°54' E 011°27'0 0.0
2019-Aug-16 19:58N 53°54' E 011°27'0 0.0
2019-Aug-16 19:28N 53°54' E 011°27'0 0.0
2019-Aug-16 18:58N 53°54' E 011°27'0 0.0
2019-Aug-16 18:25N 53°54' E 011°27'0 0.0
2019-Aug-16 17:58N 53°54' E 011°27'0 0.0
2019-Aug-16 17:28N 53°54' E 011°27'0 0.0
2019-Aug-16 16:58N 53°54' E 011°27'0 0.0
2019-Aug-16 16:28N 53°54' E 011°27'0 0.0
2019-Aug-16 15:58N 53°54' E 011°27'0 0.0
2019-Aug-16 15:28N 53°54' E 011°27'0 0.0
2019-Aug-16 14:58N 53°54' E 011°27'0 0.0
2019-Aug-16 14:28N 53°54' E 011°27'0 0.0
2019-Aug-16 13:58N 53°54' E 011°27'0 0.0
2019-Aug-16 13:28N 53°54' E 011°27'0 0.0
2019-Aug-16 12:46N 53°54' E 011°27'0 0.0
2019-Aug-16 11:55N 53°54' E 011°27'0 0.0
2019-Aug-16 11:28N 53°54' E 011°27'0 0.0
2019-Aug-16 10:52N 53°54' E 011°27'0 0.0
2019-Aug-16 10:25N 53°54' E 011°27'0 0.0
2019-Aug-16 09:55N 53°54' E 011°27'0 0.0
2019-Aug-16 09:28N 53°54' E 011°27'0 0.0
2019-Aug-16 08:58N 53°54' E 011°27'0 0.0
2019-Aug-16 08:25N 53°54' E 011°27'0 0.0
2019-Aug-16 07:58N 53°54' E 011°27'0 0.0
2019-Aug-16 07:28N 53°54' E 011°27'0 0.0
2019-Aug-16 06:55N 53°54' E 011°27'0 0.0
2019-Aug-16 06:28N 53°54' E 011°27'0 0.0
2019-Aug-16 05:55N 53°54' E 011°27'0 0.0
2019-Aug-16 05:28N 53°54' E 011°27'0 0.0
2019-Aug-16 04:49N 53°54' E 011°27'0 0.0
2019-Aug-16 04:28N 53°54' E 011°27'0 0.0
2019-Aug-16 03:49N 53°54' E 011°27'0 0.0
2019-Aug-16 03:28N 53°54' E 011°27'0 0.0
2019-Aug-16 02:58N 53°54' E 011°27'0 0.0
2019-Aug-16 02:28N 53°54' E 011°27'0 0.0
2019-Aug-16 01:58N 53°54' E 011°27'0 0.0
2019-Aug-16 01:28N 53°54' E 011°27'0 0.0
2019-Aug-16 00:55N 53°54' E 011°27'0 0.0
2019-Aug-16 00:28N 53°54' E 011°27'0 0.0
2019-Aug-15 23:52N 53°54' E 011°27'0 0.0
2019-Aug-15 23:22N 53°54' E 011°27'0 0.0
2019-Aug-15 22:46N 53°54' E 011°27'0 0.0
2019-Aug-15 21:31N 53°54' E 011°27'0 0.0
2019-Aug-15 21:16N 53°54' E 011°27'0 0.0
2019-Aug-15 20:37N 53°54' E 011°27'0 0.0
2019-Aug-15 20:28N 53°54' E 011°27'0 0.0
2019-Aug-15 19:52N 53°54' E 011°27'0 0.0
2019-Aug-15 19:19N 53°54' E 011°27'0 0.0
2019-Aug-15 18:43N 53°54' E 011°27'0 0.0
2019-Aug-15 18:28N 53°54' E 011°27'0 0.0
2019-Aug-15 17:13N 53°54' E 011°27'0 0.0
2019-Aug-15 16:46N 53°54' E 011°27'0 0.0
2019-Aug-15 16:28N 53°54' E 011°27'0 0.0
2019-Aug-15 15:46N 53°54' E 011°27'0 0.0
2019-Aug-15 15:28N 53°54' E 011°27'0 0.0
2019-Aug-15 14:58N 53°54' E 011°27'0 0.0
2019-Aug-15 14:22N 53°54' E 011°27'0 0.0
2019-Aug-15 13:58N 53°54' E 011°27'0 0.0
2019-Aug-15 13:22N 53°54' E 011°27'0 0.0
2019-Aug-15 12:58N 53°54' E 011°27'0 0.0
2019-Aug-15 12:28N 53°54' E 011°27'0 0.0
2019-Aug-15 11:58N 53°54' E 011°27'0 0.0
2019-Aug-15 11:28N 53°54' E 011°27'0 0.0
2019-Aug-15 10:58N 53°54' E 011°27'0 0.0
2019-Aug-15 10:28N 53°54' E 011°27'0 0.0
2019-Aug-15 10:01N 53°54' E 011°27'0 0.5
2019-Aug-15 09:30N 53°54' E 011°27'1 1.8
2019-Aug-15 09:01N 53°55' E 011°26'3 6.8
2019-Aug-15 08:30N 53°58' E 011°23'3 6.2
2019-Aug-15 08:01N 54°00' E 011°20'3 6.6
2019-Aug-15 07:31N 54°02' E 011°24'3 5.5
2019-Aug-15 07:00N 54°05' E 011°26'1 1.2
2019-Aug-15 06:30N 54°05' E 011°25'0 0.4
2019-Aug-15 05:59N 54°05' E 011°25'0 0.7
2019-Aug-15 05:28N 54°05' E 011°25'0 0.0
2019-Aug-15 04:58N 54°05' E 011°25'0 0.1
2019-Aug-15 04:28N 54°05' E 011°25'0 0.0
2019-Aug-15 03:52N 54°05' E 011°25'0 0.0
2019-Aug-15 03:22N 54°05' E 011°25'0 0.0
2019-Aug-15 02:52N 54°05' E 011°25'0 0.0
2019-Aug-15 02:13N 54°05' E 011°25'0 0.0
2019-Aug-15 01:55N 54°05' E 011°25'0 0.0
2019-Aug-15 01:28N 54°05' E 011°25'0 0.0
2019-Aug-15 00:55N 54°05' E 011°25'0 0.0
2019-Aug-15 00:07N 54°05' E 011°25'0 0.0
2019-Aug-14 23:46N 54°05' E 011°25'0 0.0
2019-Aug-14 23:28N 54°05' E 011°25'0 0.0
2019-Aug-14 22:52N 54°05' E 011°25'0 0.0
2019-Aug-14 22:25N 54°05' E 011°25'0 0.0
2019-Aug-14 21:58N 54°05' E 011°25'0 0.2
2019-Aug-14 21:28N 54°05' E 011°25'0 0.0
2019-Aug-14 20:13N 54°05' E 011°25'0 0.0
2019-Aug-14 19:52N 54°05' E 011°25'0 0.0
2019-Aug-14 19:28N 54°05' E 011°25'  

Dump ship's entire track history